Aduana, Mexico

4:12 PM EST on December 09, 2016 (GMT -0500)
Cancun International | | Change Station

Elev 16 ft 21.04 °N, 86.88 °W | Updated 25 minutes ago

Clear
Clear
82 °F
Feels Like 87 °F
N
9
Wind Variable Wind from NE

Today
High -- | Low -- °F
--% Chance of Precip.
Yesterday
High -- | Low -- °F
Precip. -- in
Pressure 30.03 in
Visibility 7.0 miles
Clouds Few 1800 ft
Few 6000 ft
Heat Index 87 °F
Dew Point 72 °F
Humidity 70%
Rainfall 0.00 in
Snow Depth Not available.
7:13 AM 6:06 PM
Waxing Gibbous, 77% visible
METAR MMUN 092047Z 05008KT 7SM FEW018 FEW060 28/22 A3003 RMK SLP169 57020 911 8/120 MDT CU E CI
Pressure 30.03 in
Visibility 7.0 miles
Clouds Few 1800 ft
Few 6000 ft
Heat Index 87 °F
Dew Point 72 °F
Humidity 70%
Rainfall 0.00 in
Snow Depth Not available.
7:13 AM 6:06 PM
Waxing Gibbous, 77% visible
METAR MMUN 092047Z 05008KT 7SM FEW018 FEW060 28/22 A3003 RMK SLP169 57020 911 8/120 MDT CU E CI

10-Day Weather Forecast

No radar image for this location.
×

Almanac

Astronomy

Dec. 09, 2016 Rise Set
Actual Time
Civil Twilight
Nautical Twilight
Astronomical Twilight
Moon
Length of Visible Light
Length of Day
Tomorrow will be .
, % of the Moon is Illuminated

Today's Extremes

Country Highs Country Lows

Community

WunderPhotos

Upload Photos

1,956,517 photos uploaded!

WunderBlog® & News

Nearby

Air Quality

  Air Quality AQ Index Pollutant
Not available.

Snow Depth

Station Depth Elevation

Earthquake Activity

City Distance Mag. Time & Date
Minimum magnitude displayed is 2.5.

Coastal Water Temperatures

Place Temperature

Stations

Nearby Weather Stations

Station Location Temp. Windchill Dew Point Humidity Wind Precip. Elev Updated Type